Weather at Shawnigan Lake Seaplane Base

Public forecast

Using degrees Celsius for public forecast. Weather courtesy of forecast.io.

Closest aviation weather report (METAR) to Shawnigan Lake Seaplane Base

Closest report is Victoria International Airport, 8.2 nm (15.2 km) E.

2024/05/20 05:00 (retrieved 15 minutes ago)

CYYJ 200500Z VRB02KT 30SM FEW050 09/06 A3022 RMK SC1 SC TR SLP236

Closest aviation forecast (TAF) to Shawnigan Lake Seaplane Base

Forecast is more than 6 hours old.

Closest forecast is Victoria Harbour Seaplane Base, 16.3 nm (30.2 km) SE.

2024/05/19 21:00 (retrieved 8 hours ago)

TAF CYWH 192046Z 1921/2004 19005KT P6SM SCT030 RMK NXT FCST BY 201400Z